createdAt,value
2023-04-26T00:02:14.011Z,1.45
2023-04-26T00:04:41.544Z,0.88
2023-04-26T00:07:08.759Z,1.17
2023-04-26T00:09:42.247Z,1.55
2023-04-26T00:12:10.522Z,1.15
2023-04-26T00:14:37.430Z,1.70
2023-04-26T00:17:09.265Z,1.20
2023-04-26T00:19:36.038Z,1.70
2023-04-26T00:22:11.216Z,1.27
2023-04-26T00:24:38.277Z,1.45
2023-04-26T00:27:10.913Z,0.88
2023-04-26T00:29:38.180Z,1.30
2023-04-26T00:32:11.069Z,1.45
2023-04-26T00:34:38.470Z,1.25
2023-04-26T00:37:06.333Z,1.52
2023-04-26T00:39:33.646Z,1.60
2023-04-26T00:42:02.712Z,1.00
2023-04-26T00:44:31.706Z,1.25
2023-04-26T00:47:00.703Z,0.98
2023-04-26T00:49:28.364Z,1.10
2023-04-26T00:51:55.637Z,1.10
2023-04-26T00:54:22.864Z,1.15
2023-04-26T00:56:52.396Z,0.60
2023-04-26T00:59:24.043Z,1.30
2023-04-26T01:01:53.385Z,1.30
2023-04-26T01:04:21.005Z,1.10
2023-04-26T01:06:48.459Z,1.60
2023-04-26T01:09:16.442Z,1.70
2023-04-26T01:11:47.298Z,1.23
2023-04-26T01:14:15.631Z,1.80
2023-04-26T01:16:42.492Z,1.42
2023-04-26T01:19:14.725Z,1.30
2023-04-26T01:21:42.107Z,1.10
2023-04-26T01:24:13.490Z,1.27
2023-04-26T01:26:48.608Z,0.90
2023-04-26T01:29:19.721Z,1.08
2023-04-26T01:31:47.450Z,1.00
2023-04-26T01:34:15.970Z,1.00
2023-04-26T01:39:10.438Z,1.00
2023-04-26T01:41:37.564Z,0.73
2023-04-26T01:44:05.117Z,1.20
2023-04-26T01:46:32.459Z,1.27
2023-04-26T01:48:59.499Z,0.57
2023-04-26T01:51:27.394Z,1.02
2023-04-26T01:53:53.832Z,1.02
2023-04-26T01:56:22.899Z,1.33
2023-04-26T01:58:49.797Z,0.90
2023-04-26T02:01:18.266Z,1.00
2023-04-26T02:03:44.858Z,1.13
2023-04-26T02:06:11.752Z,1.00
2023-04-26T02:08:38.298Z,1.02
2023-04-26T02:11:06.331Z,1.20
2023-04-26T02:13:33.094Z,0.95
2023-04-26T02:15:59.931Z,0.98
2023-04-26T02:18:27.129Z,1.02
2023-04-26T02:20:54.562Z,1.08
2023-04-26T02:23:21.468Z,0.93
2023-04-26T02:25:48.810Z,1.40
2023-04-26T02:28:16.454Z,1.00
2023-04-26T02:30:43.462Z,0.52
2023-04-26T02:33:11.991Z,0.82
2023-04-26T02:35:39.371Z,0.77
2023-04-26T02:38:06.386Z,1.00
2023-04-26T02:40:34.852Z,0.77
2023-04-26T02:43:01.686Z,1.05
2023-04-26T02:45:30.350Z,0.75
2023-04-26T02:47:57.047Z,0.82
2023-04-26T02:50:26.723Z,0.68
2023-04-26T02:52:53.339Z,0.73
2023-04-26T02:55:20.908Z,1.10
2023-04-26T02:57:47.562Z,0.93
2023-04-26T03:00:14.509Z,0.88
2023-04-26T03:02:41.875Z,1.20
2023-04-26T03:05:10.018Z,1.05
2023-04-26T03:07:37.777Z,0.93
2023-04-26T03:10:06.194Z,1.35
2023-04-26T03:12:33.433Z,0.80
2023-04-26T03:15:00.149Z,0.70
2023-04-26T03:17:27.518Z,1.60
2023-04-26T03:19:55.515Z,0.80
2023-04-26T03:22:22.977Z,0.88
2023-04-26T03:24:50.016Z,0.75
2023-04-26T03:27:18.059Z,1.85
2023-04-26T03:29:44.946Z,1.00
2023-04-26T03:32:12.089Z,1.08
2023-04-26T03:34:39.299Z,0.85
2023-04-26T03:37:11.595Z,1.45
2023-04-26T03:39:38.633Z,0.70
2023-04-26T03:42:06.082Z,1.05
2023-04-26T03:44:33.631Z,1.23
2023-04-26T03:47:00.370Z,0.90
2023-04-26T03:49:27.424Z,0.80
2023-04-26T03:51:54.398Z,1.02
2023-04-26T03:54:21.222Z,0.80
2023-04-26T03:56:48.171Z,0.93
2023-04-26T03:59:15.113Z,0.68
2023-04-26T04:01:42.203Z,0.80
2023-04-26T04:04:10.215Z,0.60
2023-04-26T04:06:40.509Z,0.98
2023-04-26T04:09:07.558Z,1.25
2023-04-26T04:11:35.342Z,0.73
2023-04-26T04:14:02.923Z,1.77
2023-04-26T04:16:30.696Z,1.67
2023-04-26T04:18:59.379Z,0.90
2023-04-26T04:21:28.051Z,1.02
2023-04-26T04:23:55.281Z,2.00
2023-04-26T04:26:22.239Z,1.00
2023-04-26T04:28:49.087Z,0.90
2023-04-26T04:31:16.116Z,0.75
2023-04-26T04:33:43.168Z,1.05
2023-04-26T04:36:10.324Z,1.10
2023-04-26T04:38:37.417Z,0.93
2023-04-26T04:41:08.282Z,1.08
2023-04-26T04:43:34.961Z,1.77
2023-04-26T04:46:01.852Z,0.82
2023-04-26T04:48:29.233Z,1.60
2023-04-26T04:51:04.988Z,1.17
2023-04-26T04:56:01.456Z,0.82
2023-04-26T04:58:28.206Z,0.77
2023-04-26T05:00:56.704Z,0.90
2023-04-26T05:03:23.605Z,1.13
2023-04-26T05:05:53.126Z,1.08
2023-04-26T05:08:20.170Z,1.50
2023-04-26T05:10:47.806Z,1.83
2023-04-26T05:13:14.555Z,1.75
2023-04-26T05:15:41.300Z,1.90
2023-04-26T05:18:08.011Z,2.08
2023-04-26T05:20:34.617Z,1.80
2023-04-26T05:23:01.733Z,1.77
2023-04-26T05:25:28.762Z,1.60
2023-04-26T05:27:55.414Z,1.60
2023-04-26T05:30:22.231Z,2.33
2023-04-26T05:32:51.070Z,2.28
2023-04-26T05:35:18.096Z,2.00
2023-04-26T05:37:46.283Z,1.50
2023-04-26T05:40:14.619Z,1.77
2023-04-26T05:42:41.670Z,1.88
2023-04-26T05:45:10.032Z,1.45
2023-04-26T05:47:37.693Z,1.80
2023-04-26T05:50:06.125Z,1.90
2023-04-26T05:55:06.152Z,1.55
2023-04-26T05:57:33.209Z,1.80
2023-04-26T06:00:00.129Z,0.93
2023-04-26T06:02:27.443Z,0.95
2023-04-26T06:04:54.876Z,1.20
2023-04-26T06:07:21.928Z,0.73
2023-04-26T06:09:49.057Z,1.13
2023-04-26T06:12:17.027Z,0.60
2023-04-26T06:14:45.807Z,0.90
2023-04-26T06:17:12.555Z,0.70
2023-04-26T06:19:40.376Z,0.80
2023-04-26T06:22:09.684Z,1.33
2023-04-26T06:24:40.169Z,0.98
2023-04-26T06:27:08.112Z,1.10
2023-04-26T06:29:36.433Z,1.23
2023-04-26T06:32:04.132Z,0.73
2023-04-26T06:34:33.528Z,1.40
2023-04-26T06:39:27.162Z,0.90
2023-04-26T06:41:53.897Z,0.65
2023-04-26T06:44:23.579Z,0.68
2023-04-26T06:46:54.448Z,0.60
2023-04-26T06:49:24.208Z,0.70
2023-04-26T06:51:53.068Z,1.00
2023-04-26T06:54:27.434Z,0.70
2023-04-26T06:56:56.033Z,0.73
2023-04-26T06:59:23.152Z,0.80
2023-04-26T07:01:50.253Z,0.90
2023-04-26T07:04:18.843Z,0.90
2023-04-26T07:06:46.451Z,0.95
2023-04-26T07:09:14.319Z,0.80
2023-04-26T07:11:41.259Z,0.80
2023-04-26T07:14:08.137Z,0.60
2023-04-26T07:16:38.268Z,0.55
2023-04-26T07:19:08.481Z,0.80
2023-04-26T07:21:35.129Z,1.10
2023-04-26T07:24:01.776Z,1.52
2023-04-26T07:26:30.408Z,0.90
2023-04-26T07:28:57.337Z,1.00
2023-04-26T07:31:23.956Z,0.82
2023-04-26T07:33:53.752Z,0.85
2023-04-26T07:36:25.032Z,1.02
2023-04-26T07:38:52.220Z,0.90
2023-04-26T07:41:19.920Z,0.65
2023-04-26T07:43:48.648Z,1.00
2023-04-26T07:46:16.137Z,1.10
2023-04-26T07:48:43.111Z,1.25
2023-04-26T07:51:14.062Z,0.75
2023-04-26T07:53:41.379Z,1.27
2023-04-26T07:56:09.199Z,1.40
2023-04-26T07:58:37.462Z,1.58
2023-04-26T08:01:05.216Z,0.98
2023-04-26T08:03:33.475Z,1.30
2023-04-26T08:06:01.317Z,1.17
2023-04-26T08:08:28.361Z,0.90
2023-04-26T08:10:55.833Z,0.95
2023-04-26T08:13:26.324Z,1.20
2023-04-26T08:15:56.351Z,1.13
2023-04-26T08:18:23.190Z,0.88
2023-04-26T08:20:50.106Z,1.20
2023-04-26T08:23:19.848Z,1.15
2023-04-26T08:25:49.868Z,0.90
2023-04-26T08:28:18.703Z,1.08
2023-04-26T08:30:45.796Z,0.77
2023-04-26T08:33:13.230Z,1.20
2023-04-26T08:35:41.272Z,0.85
2023-04-26T08:38:12.895Z,1.23
2023-04-26T08:40:42.109Z,0.95
2023-04-26T08:43:11.282Z,0.75
2023-04-26T08:45:42.448Z,1.00
2023-04-26T08:48:15.097Z,0.73
2023-04-26T08:50:47.011Z,1.38
2023-04-26T08:53:21.707Z,0.88
2023-04-26T08:55:51.560Z,1.10
2023-04-26T08:58:18.906Z,0.90
2023-04-26T09:00:46.409Z,1.10
2023-04-26T09:03:14.238Z,0.95
2023-04-26T09:05:44.308Z,1.75
2023-04-26T09:08:16.839Z,0.85
2023-04-26T09:10:44.011Z,1.40
2023-04-26T09:13:11.504Z,2.75
2023-04-26T09:15:42.551Z,1.27
2023-04-26T09:18:26.620Z,0.93
2023-04-26T09:21:08.141Z,1.35
2023-04-26T09:23:37.035Z,1.10
2023-04-26T09:26:23.541Z,1.30
2023-04-26T09:31:42.372Z,1.20
2023-04-26T09:34:11.081Z,0.90
2023-04-26T09:36:57.928Z,1.20
2023-04-26T09:39:38.613Z,1.42
2023-04-26T09:42:09.698Z,1.77
2023-04-26T09:44:36.273Z,1.02
2023-04-26T09:47:22.530Z,0.90
2023-04-26T09:49:52.171Z,0.90
2023-04-26T09:52:19.726Z,2.25
2023-04-26T09:54:49.788Z,2.35
2023-04-26T09:57:18.029Z,1.00
2023-04-26T09:59:54.210Z,1.10
2023-04-26T10:02:25.625Z,0.88
2023-04-26T10:04:55.283Z,1.08
2023-04-26T10:07:24.356Z,1.05
2023-04-26T10:09:51.485Z,1.25
2023-04-26T10:12:21.672Z,1.27
2023-04-26T10:14:50.102Z,1.02
2023-04-26T10:17:20.190Z,1.50
2023-04-26T10:19:50.397Z,1.27
2023-04-26T10:22:32.686Z,1.33
2023-04-26T10:25:02.756Z,0.90
2023-04-26T10:27:48.429Z,1.67
2023-04-26T10:30:17.569Z,1.10
2023-04-26T10:33:08.412Z,0.90
2023-04-26T10:35:38.647Z,1.25
2023-04-26T10:38:26.038Z,1.05
2023-04-26T10:40:54.104Z,0.90
2023-04-26T10:43:28.454Z,1.30
2023-04-26T10:45:58.075Z,0.90
2023-04-26T10:48:31.519Z,1.15
2023-04-26T10:51:18.147Z,1.25
2023-04-26T10:53:47.663Z,0.90
2023-04-26T10:56:24.092Z,1.40
2023-04-26T10:59:22.632Z,1.83
2023-04-26T11:01:56.222Z,1.00
2023-04-26T11:04:47.749Z,0.93
2023-04-26T11:07:14.829Z,1.27
2023-04-26T11:09:51.027Z,1.27
2023-04-26T11:12:17.856Z,1.02
2023-04-26T11:14:49.000Z,0.90
2023-04-26T11:17:18.594Z,1.15
2023-04-26T11:19:47.128Z,1.00
2023-04-26T11:22:15.295Z,0.90
2023-04-26T11:24:43.336Z,1.20
2023-04-26T11:27:11.923Z,1.10
2023-04-26T11:29:39.107Z,1.25
2023-04-26T11:32:06.874Z,1.30
2023-04-26T11:34:41.663Z,1.10
2023-04-26T11:37:09.057Z,1.45
2023-04-26T11:39:37.815Z,1.30
2023-04-26T11:42:10.525Z,1.23
2023-04-26T11:44:38.673Z,0.93
2023-04-26T11:49:40.135Z,0.68
2023-04-26T11:52:08.954Z,0.90
2023-04-26T11:54:38.158Z,0.98
2023-04-26T11:57:17.266Z,1.27
2023-04-26T11:59:45.937Z,1.10
2023-04-26T12:02:13.408Z,1.60
2023-04-26T12:04:41.417Z,1.30
2023-04-26T12:07:08.939Z,0.82
2023-04-26T12:09:36.886Z,0.75
2023-04-26T12:12:08.513Z,1.10
2023-04-26T12:14:38.350Z,1.35
2023-04-26T12:17:08.762Z,1.08
2023-04-26T12:19:37.263Z,1.13
2023-04-26T12:22:08.657Z,1.00
2023-04-26T12:24:37.848Z,0.80
2023-04-26T12:27:07.438Z,0.80
2023-04-26T12:29:37.685Z,0.80
2023-04-26T12:32:05.389Z,0.52
2023-04-26T12:34:33.344Z,0.70
2023-04-26T12:37:00.446Z,0.65
2023-04-26T12:39:27.136Z,0.88
2023-04-26T12:41:55.220Z,1.00
2023-04-26T12:44:25.996Z,1.27
2023-04-26T12:46:54.673Z,0.75
2023-04-26T12:49:21.707Z,1.40
2023-04-26T12:51:48.620Z,0.68
2023-04-26T12:54:16.766Z,0.90
2023-04-26T12:56:46.823Z,1.10
2023-04-26T12:59:14.876Z,0.93
2023-04-26T13:01:43.133Z,0.80
2023-04-26T13:06:40.384Z,1.33
2023-04-26T13:09:12.926Z,0.60
2023-04-26T13:11:40.734Z,0.68
2023-04-26T13:14:08.042Z,0.82
2023-04-26T13:16:35.017Z,0.90
2023-04-26T13:19:03.218Z,0.80
2023-04-26T13:21:32.907Z,0.80
2023-04-26T13:24:02.019Z,1.02
2023-04-26T13:26:32.840Z,0.90
2023-04-26T13:29:00.994Z,0.88
2023-04-26T13:31:27.595Z,0.75
2023-04-26T13:33:55.888Z,1.20
2023-04-26T13:36:23.341Z,0.70
2023-04-26T13:38:52.112Z,0.82
2023-04-26T13:41:18.975Z,0.93
2023-04-26T13:43:45.998Z,0.75
2023-04-26T13:46:12.896Z,0.98
2023-04-26T13:48:41.653Z,0.75
2023-04-26T13:51:08.583Z,0.82
2023-04-26T13:53:36.885Z,0.70
2023-04-26T13:56:09.851Z,1.38
2023-04-26T13:58:37.634Z,0.80
2023-04-26T14:01:07.968Z,0.63
2023-04-26T14:03:36.966Z,0.60
2023-04-26T14:06:05.904Z,0.95
2023-04-26T14:08:32.651Z,1.48
2023-04-26T14:10:59.991Z,0.70
2023-04-26T14:13:26.857Z,0.80
2023-04-26T14:15:53.923Z,0.93
2023-04-26T14:18:22.133Z,0.85
2023-04-26T14:20:51.037Z,0.98
2023-04-26T14:23:18.623Z,1.20
2023-04-26T14:25:45.875Z,1.15
2023-04-26T14:28:16.822Z,1.00
2023-04-26T14:30:49.097Z,1.33
2023-04-26T14:33:17.416Z,0.85
2023-04-26T14:40:40.499Z,1.20
2023-04-26T14:43:07.425Z,1.10
2023-04-26T14:45:44.164Z,0.93
2023-04-26T14:48:14.233Z,0.85
2023-04-26T14:50:41.795Z,1.02
2023-04-26T14:53:08.877Z,0.90
2023-04-26T14:55:36.070Z,0.90
2023-04-26T14:58:04.521Z,1.15
2023-04-26T15:00:31.771Z,1.10
2023-04-26T15:02:58.994Z,0.88
2023-04-26T15:05:28.860Z,0.90
2023-04-26T15:07:57.061Z,0.93
2023-04-26T15:15:18.117Z,1.00
2023-04-26T15:17:44.961Z,0.70
2023-04-26T15:20:12.822Z,0.98
2023-04-26T15:22:43.625Z,1.35
2023-04-26T15:25:11.879Z,1.10
2023-04-26T15:27:38.561Z,1.05
2023-04-26T15:30:07.223Z,0.98
2023-04-26T15:32:35.936Z,1.13
2023-04-26T15:35:03.167Z,1.05
2023-04-26T15:37:33.257Z,0.82
2023-04-26T15:40:00.299Z,0.95
2023-04-26T15:42:27.577Z,1.33
2023-04-26T15:44:55.743Z,0.70
2023-04-26T15:47:23.553Z,1.02
2023-04-26T15:49:51.920Z,0.77
2023-04-26T15:52:19.795Z,1.20
2023-04-26T15:54:47.955Z,0.90
2023-04-26T15:57:15.035Z,1.20
2023-04-26T15:59:45.179Z,1.20
2023-04-26T16:02:13.401Z,1.30
2023-04-26T16:04:42.356Z,1.33
2023-04-26T16:07:10.234Z,0.60
2023-04-26T16:09:38.000Z,1.00
2023-04-26T16:12:08.213Z,0.60
2023-04-26T16:14:35.073Z,1.27
2023-04-26T16:17:04.674Z,0.82
2023-04-26T16:19:32.123Z,1.17
2023-04-26T16:22:00.146Z,1.15
2023-04-26T16:24:29.512Z,1.05
2023-04-26T16:26:58.140Z,0.85
2023-04-26T16:29:26.465Z,1.00
2023-04-26T16:31:56.612Z,0.85
2023-04-26T16:34:24.650Z,0.93
2023-04-26T16:36:54.323Z,0.90
2023-04-26T16:39:23.630Z,1.08
2023-04-26T16:44:21.209Z,1.15
2023-04-26T16:46:48.685Z,1.58
2023-04-26T16:49:15.833Z,1.02
2023-04-26T16:51:51.759Z,1.30
2023-04-26T16:54:18.434Z,1.10
2023-04-26T16:56:45.961Z,1.00
2023-04-26T16:59:13.250Z,1.50
2023-04-26T17:01:40.331Z,1.08
2023-04-26T17:04:13.852Z,0.80
2023-04-26T17:06:40.856Z,1.20
2023-04-26T17:09:08.851Z,0.80
2023-04-26T17:11:37.490Z,1.10
2023-04-26T17:14:07.244Z,0.98
2023-04-26T17:16:34.517Z,1.40
2023-04-26T17:19:01.399Z,0.82
2023-04-26T17:21:28.469Z,1.02
2023-04-26T17:23:56.416Z,1.05
2023-04-26T17:26:23.657Z,0.90
2023-04-26T17:28:51.385Z,1.13
2023-04-26T17:31:19.292Z,1.70
2023-04-26T17:33:46.720Z,1.30
2023-04-26T17:36:13.698Z,1.00
2023-04-26T17:38:40.605Z,1.58
2023-04-26T17:41:08.488Z,0.93
2023-04-26T17:43:40.495Z,1.10
2023-04-26T17:46:07.572Z,0.90
2023-04-26T17:48:37.127Z,0.98
2023-04-26T17:51:06.332Z,0.88
2023-04-26T17:53:35.482Z,0.90
2023-04-26T17:56:07.252Z,0.75
2023-04-26T17:58:37.415Z,0.93
2023-04-26T18:01:07.733Z,1.08
2023-04-26T18:03:37.591Z,0.88
2023-04-26T18:06:07.523Z,0.88
2023-04-26T18:08:34.351Z,1.13
2023-04-26T18:11:01.372Z,1.08
2023-04-26T18:13:28.530Z,0.95
2023-04-26T18:15:56.194Z,0.80
2023-04-26T18:18:24.048Z,0.88
2023-04-26T18:20:52.339Z,1.08
2023-04-26T18:23:21.760Z,0.75
2023-04-26T18:25:50.846Z,1.42
2023-04-26T18:28:17.806Z,0.90
2023-04-26T18:30:46.283Z,1.05
2023-04-26T18:33:15.874Z,0.90
2023-04-26T18:35:43.937Z,1.08
2023-04-26T18:38:10.675Z,0.95
2023-04-26T18:40:37.728Z,1.20
2023-04-26T18:43:05.659Z,1.00
2023-04-26T18:45:35.003Z,0.90
2023-04-26T18:50:29.838Z,0.80
2023-04-26T18:52:59.796Z,1.15
2023-04-26T18:55:27.525Z,0.90
2023-04-26T18:57:54.323Z,1.20
2023-04-26T19:00:21.517Z,0.98
2023-04-26T19:02:48.949Z,1.13
2023-04-26T19:05:16.113Z,0.90
2023-04-26T19:07:43.332Z,1.30
2023-04-26T19:10:15.375Z,0.82
2023-04-26T19:12:42.403Z,0.82
2023-04-26T19:15:09.883Z,1.27
2023-04-26T19:17:37.294Z,1.17
2023-04-26T19:20:10.100Z,0.90
2023-04-26T19:22:36.995Z,0.82
2023-04-26T19:25:05.601Z,1.40
2023-04-26T19:27:35.904Z,1.00
2023-04-26T19:30:07.137Z,0.98
2023-04-26T19:32:34.334Z,1.45
2023-04-26T19:35:02.982Z,1.10
2023-04-26T19:37:33.131Z,1.00
2023-04-26T19:39:59.821Z,0.88
2023-04-26T19:42:27.706Z,0.90
2023-04-26T19:44:54.552Z,0.95
2023-04-26T19:47:23.946Z,1.10
2023-04-26T19:49:53.017Z,1.00
2023-04-26T19:52:20.914Z,1.40
2023-04-26T19:54:47.912Z,1.20
2023-04-26T19:57:15.318Z,1.10
2023-04-26T19:59:43.891Z,1.10
2023-04-26T20:02:11.887Z,1.10
2023-04-26T20:07:11.714Z,0.90
2023-04-26T20:09:38.528Z,1.08
2023-04-26T20:12:05.903Z,1.50
2023-04-26T20:14:38.151Z,0.65
2023-04-26T20:17:08.173Z,1.15
2023-04-26T20:19:38.214Z,1.13
2023-04-26T20:22:12.114Z,1.92
2023-04-26T20:24:41.511Z,1.38
2023-04-26T20:27:08.666Z,1.05
2023-04-26T20:29:48.896Z,1.58
2023-04-26T20:32:20.073Z,1.20
2023-04-26T20:34:49.156Z,1.00
2023-04-26T20:37:24.301Z,1.02
2023-04-26T20:40:00.865Z,1.40
2023-04-26T20:42:31.741Z,1.00
2023-04-26T20:45:01.799Z,1.27
2023-04-26T20:47:31.107Z,1.20
2023-04-26T20:49:58.154Z,1.10
2023-04-26T20:52:26.534Z,1.23
2023-04-26T20:57:23.700Z,1.10
2023-04-26T20:59:53.780Z,0.90
2023-04-26T21:02:21.993Z,1.48
2023-04-26T21:04:53.540Z,1.00
2023-04-26T21:07:27.850Z,0.90
2023-04-26T21:09:57.536Z,0.73
2023-04-26T21:12:24.634Z,0.73
2023-04-26T21:14:53.369Z,1.20
2023-04-26T21:17:24.591Z,0.80
2023-04-26T21:20:01.175Z,0.65
2023-04-26T21:22:30.606Z,0.98
2023-04-26T21:24:57.373Z,1.00
2023-04-26T21:27:27.382Z,1.13
2023-04-26T21:29:57.854Z,1.13
2023-04-26T21:32:27.835Z,0.80
2023-04-26T21:35:04.628Z,1.08
2023-04-26T21:37:36.478Z,1.00
2023-04-26T21:40:07.119Z,1.00
2023-04-26T21:42:36.561Z,1.20
2023-04-26T21:45:15.952Z,1.40
2023-04-26T21:47:51.780Z,1.10
2023-04-26T21:50:26.536Z,1.52
2023-04-26T21:52:59.530Z,1.13
2023-04-26T21:55:36.098Z,1.67
2023-04-26T21:58:07.212Z,1.00
2023-04-26T22:00:52.754Z,1.35
2023-04-26T22:03:21.506Z,1.10
2023-04-26T22:05:59.865Z,1.23
2023-04-26T22:08:33.836Z,1.40
2023-04-26T22:11:10.824Z,1.20
2023-04-26T22:13:38.080Z,1.20
2023-04-26T22:16:07.499Z,1.20
2023-04-26T22:18:38.297Z,1.20
2023-04-26T22:21:06.468Z,1.20
2023-04-26T22:23:48.338Z,1.38
2023-04-26T22:26:18.013Z,1.33
2023-04-26T22:29:05.384Z,1.15
2023-04-26T22:31:39.412Z,1.50
2023-04-26T22:34:06.996Z,2.45
2023-04-26T22:36:36.382Z,1.30
2023-04-26T22:39:04.007Z,3.40
2023-04-26T22:41:37.498Z,2.42
2023-04-26T22:44:05.289Z,3.28
2023-04-26T22:46:33.087Z,3.75
2023-04-26T22:49:06.545Z,2.90
2023-04-26T22:51:40.662Z,3.28
2023-04-26T22:54:24.130Z,2.85
2023-04-26T22:57:02.546Z,2.78
2023-04-26T22:59:34.952Z,2.90
2023-04-26T23:02:02.255Z,2.47
2023-04-26T23:04:43.787Z,3.35
2023-04-26T23:07:14.854Z,2.70
2023-04-26T23:09:44.529Z,3.28
2023-04-26T23:12:12.020Z,3.20
2023-04-26T23:14:38.969Z,3.10
2023-04-26T23:17:12.119Z,2.95
2023-04-26T23:19:40.298Z,3.40
2023-04-26T23:22:14.061Z,3.28
2023-04-26T23:24:41.002Z,2.65
2023-04-26T23:27:08.059Z,3.10
2023-04-26T23:29:38.287Z,2.38
2023-04-26T23:32:08.197Z,2.30
2023-04-26T23:34:42.587Z,2.38
2023-04-26T23:37:11.800Z,2.90
2023-04-26T23:39:41.690Z,2.28
2023-04-26T23:42:11.010Z,1.98
2023-04-26T23:44:40.007Z,2.20
2023-04-26T23:47:07.269Z,2.00
2023-04-26T23:49:34.289Z,3.08
2023-04-26T23:52:02.028Z,2.20
2023-04-26T23:54:28.765Z,2.08
2023-04-26T23:56:55.947Z,2.45
2023-04-26T23:59:23.277Z,2.47
